createdAt,value
2019-05-21T00:01:34.939Z,55.77
2019-05-21T00:04:06.924Z,62.10
2019-05-21T00:06:38.887Z,64.37
2019-05-21T00:09:10.921Z,65.63
2019-05-21T00:11:42.854Z,62.60
2019-05-21T00:14:14.871Z,64.23
2019-05-21T00:16:46.835Z,59.67
2019-05-21T00:19:18.855Z,65.27
2019-05-21T00:21:50.850Z,66.83
2019-05-21T00:24:22.843Z,71.30
2019-05-21T00:26:54.793Z,71.47
2019-05-21T00:30:03.326Z,69.90
2019-05-21T00:33:12.241Z,68.90
2019-05-21T00:36:22.590Z,66.97
2019-05-21T00:39:31.319Z,70.67
2019-05-21T00:42:02.369Z,74.83
2019-05-21T00:44:39.907Z,75.57
2019-05-21T00:47:12.369Z,71.97
2019-05-21T00:49:44.355Z,69.23
2019-05-21T00:52:16.305Z,72.93
2019-05-21T00:54:48.317Z,69.90
2019-05-21T00:57:20.255Z,75.93
2019-05-21T00:59:52.268Z,70.90
2019-05-21T01:02:24.255Z,74.17
2019-05-21T01:05:00.563Z,78.13
2019-05-21T01:07:30.125Z,76.13
2019-05-21T01:10:02.486Z,68.67
2019-05-21T01:12:34.889Z,67.87
2019-05-21T01:15:06.869Z,69.97
2019-05-21T01:17:38.870Z,71.67
2019-05-21T01:20:10.913Z,70.43
2019-05-21T01:22:42.895Z,71.63
2019-05-21T01:25:14.883Z,67.23
2019-05-21T01:27:46.837Z,69.30
2019-05-21T01:30:18.830Z,62.10
2019-05-21T01:32:50.798Z,57.33
2019-05-21T01:35:22.800Z,55.20
2019-05-21T01:37:54.768Z,53.97
2019-05-21T01:40:26.747Z,55.77
2019-05-21T01:42:58.704Z,51.40
2019-05-21T01:45:30.669Z,55.60
2019-05-21T01:48:02.683Z,51.70
2019-05-21T01:50:34.725Z,49.83
2019-05-21T01:53:06.713Z,43.13
2019-05-21T01:55:38.675Z,42.27
2019-05-21T01:58:10.684Z,49.37
2019-05-21T02:00:42.651Z,48.63
2019-05-21T02:03:14.632Z,44.97
2019-05-21T02:05:46.633Z,39.07
2019-05-21T02:08:18.625Z,43.73
2019-05-21T02:10:50.596Z,45.93
2019-05-21T02:13:22.593Z,48.00
2019-05-21T02:15:54.576Z,49.97
2019-05-21T02:18:26.554Z,49.10
2019-05-21T02:20:58.510Z,51.40
2019-05-21T02:23:30.722Z,46.53
2019-05-21T02:26:02.925Z,52.13
2019-05-21T02:28:34.902Z,50.97
2019-05-21T02:31:06.897Z,50.73
2019-05-21T02:33:38.969Z,48.13
2019-05-21T02:36:10.922Z,48.10
2019-05-21T02:38:43.031Z,48.43
2019-05-21T02:41:14.991Z,52.10
2019-05-21T02:43:47.056Z,48.23
2019-05-21T02:46:19.003Z,44.97
2019-05-21T02:48:51.016Z,45.03
2019-05-21T02:51:23.097Z,47.53
2019-05-21T02:53:55.146Z,46.90
2019-05-21T02:56:27.106Z,48.10
2019-05-21T02:58:59.102Z,43.67
2019-05-21T03:01:49.399Z,44.70
2019-05-21T03:04:21.368Z,42.30
2019-05-21T03:06:55.602Z,47.03
2019-05-21T03:09:27.580Z,45.60
2019-05-21T03:11:59.589Z,42.13
2019-05-21T03:14:31.555Z,47.13
2019-05-21T03:17:03.522Z,41.90
2019-05-21T03:19:35.494Z,46.17
2019-05-21T03:22:07.578Z,49.70
2019-05-21T03:24:39.555Z,43.07
2019-05-21T03:27:11.528Z,46.77
2019-05-21T03:29:43.524Z,45.40
2019-05-21T03:32:15.508Z,48.33
2019-05-21T03:34:47.481Z,48.03
2019-05-21T03:37:19.431Z,45.60
2019-05-21T03:39:51.404Z,49.70
2019-05-21T03:42:23.347Z,48.63
2019-05-21T03:44:59.704Z,48.43
2019-05-21T03:47:29.279Z,48.67
2019-05-21T03:50:01.253Z,44.77
2019-05-21T03:52:33.432Z,49.83
2019-05-21T03:55:05.807Z,46.27
2019-05-21T03:57:37.756Z,45.23
2019-05-21T04:00:10.756Z,45.50
2019-05-21T04:02:42.706Z,50.83
2019-05-21T04:05:22.346Z,50.30
2019-05-21T04:07:54.309Z,52.70
2019-05-21T04:10:26.262Z,51.10
2019-05-21T04:13:08.094Z,52.57
2019-05-21T04:15:59.276Z,54.20
2019-05-21T04:18:39.339Z,56.80
2019-05-21T04:21:11.456Z,50.30
2019-05-21T04:23:43.502Z,55.60
2019-05-21T04:26:15.573Z,47.43
2019-05-21T04:28:47.615Z,56.17
2019-05-21T04:31:19.579Z,49.83
2019-05-21T04:33:51.580Z,46.20
2019-05-21T04:36:23.551Z,47.03
2019-05-21T04:38:55.502Z,45.60
2019-05-21T04:41:27.477Z,49.33
2019-05-21T04:43:59.427Z,45.73
2019-05-21T04:46:31.537Z,42.63
2019-05-21T04:49:03.512Z,42.00
2019-05-21T04:51:35.511Z,45.40
2019-05-21T04:54:07.498Z,44.57
2019-05-21T04:56:39.773Z,50.50
2019-05-21T04:59:11.735Z,42.73
2019-05-21T05:01:43.788Z,41.20
2019-05-21T05:04:21.131Z,42.40
2019-05-21T05:06:49.674Z,43.80
2019-05-21T05:09:21.635Z,38.43
2019-05-21T05:11:53.685Z,40.33
2019-05-21T05:14:25.698Z,38.40
2019-05-21T05:16:57.705Z,38.67
2019-05-21T05:19:29.769Z,34.57
2019-05-21T05:22:01.728Z,40.27
2019-05-21T05:24:37.023Z,37.57
2019-05-21T05:27:07.661Z,34.20
2019-05-21T05:29:39.596Z,35.37
2019-05-21T05:32:11.611Z,31.27
2019-05-21T05:34:43.584Z,30.37
2019-05-21T05:37:15.563Z,28.23
2019-05-21T05:39:47.539Z,33.73
2019-05-21T05:42:19.501Z,32.80
2019-05-21T05:44:51.487Z,26.07
2019-05-21T05:47:23.471Z,26.53
2019-05-21T05:49:57.610Z,29.23
2019-05-21T05:52:29.651Z,24.07
2019-05-21T05:55:01.633Z,25.00
2019-05-21T05:57:33.587Z,25.47
2019-05-21T06:00:08.400Z,21.83
2019-05-21T06:02:40.417Z,20.80
2019-05-21T06:05:12.496Z,19.47
2019-05-21T06:07:58.839Z,17.90
2019-05-21T06:10:18.457Z,18.83
2019-05-21T06:12:50.429Z,17.13
2019-05-21T06:15:22.693Z,16.27
2019-05-21T06:17:54.742Z,16.37
2019-05-21T06:20:26.699Z,14.57
2019-05-21T06:22:58.764Z,15.67
2019-05-21T06:25:30.766Z,13.63
2019-05-21T06:28:02.696Z,12.60
2019-05-21T06:30:34.682Z,11.37
2019-05-21T06:33:06.662Z,9.50
2019-05-21T06:35:38.637Z,10.63
2019-05-21T06:38:17.685Z,9.00
2019-05-21T06:40:44.562Z,8.37
2019-05-21T06:43:16.532Z,7.23
2019-05-21T06:45:48.497Z,6.67
2019-05-21T06:48:20.442Z,7.30
2019-05-21T06:50:52.459Z,6.77
2019-05-21T06:53:24.409Z,6.37
2019-05-21T06:55:56.437Z,7.30
2019-05-21T06:58:28.401Z,6.27
2019-05-21T07:01:00.399Z,5.47
2019-05-21T07:03:32.477Z,5.20
2019-05-21T07:06:04.451Z,4.97
2019-05-21T07:08:36.418Z,5.87
2019-05-21T07:11:08.408Z,4.77
2019-05-21T07:13:40.453Z,4.30
2019-05-21T07:16:12.464Z,4.10
2019-05-21T07:18:44.466Z,4.67
2019-05-21T07:21:16.450Z,5.00
2019-05-21T07:23:48.444Z,4.40
2019-05-21T07:26:20.514Z,4.07
2019-05-21T07:28:54.380Z,4.10
2019-05-21T07:31:26.689Z,3.90
2019-05-21T07:33:58.717Z,4.57
2019-05-21T07:36:33.658Z,3.40
2019-05-21T07:39:06.158Z,3.50
2019-05-21T07:41:38.167Z,3.77
2019-05-21T07:44:10.146Z,3.33
2019-05-21T07:46:42.123Z,3.50
2019-05-21T07:49:14.208Z,3.37
2019-05-21T07:51:46.198Z,3.50
2019-05-21T07:54:18.223Z,3.53
2019-05-21T07:56:50.190Z,3.60
2019-05-21T07:59:22.183Z,3.60
2019-05-21T08:01:54.158Z,3.27
2019-05-21T08:04:26.155Z,3.40
2019-05-21T08:06:58.141Z,3.73
2019-05-21T08:09:30.106Z,3.10
2019-05-21T08:12:18.296Z,2.63
2019-05-21T08:14:36.048Z,3.20
2019-05-21T08:17:08.068Z,3.33
2019-05-21T08:19:40.043Z,3.10
2019-05-21T08:22:12.048Z,2.80
2019-05-21T08:24:44.020Z,3.07
2019-05-21T08:27:16.028Z,3.40
2019-05-21T08:29:48.044Z,3.37
2019-05-21T08:32:20.344Z,3.80
2019-05-21T08:34:52.322Z,3.20
2019-05-21T08:37:24.329Z,3.20
2019-05-21T08:39:56.317Z,3.03
2019-05-21T08:42:28.303Z,3.33
2019-05-21T08:45:00.321Z,3.03
2019-05-21T08:47:32.295Z,2.83
2019-05-21T08:50:05.046Z,3.30
2019-05-21T08:52:37.050Z,3.00
2019-05-21T08:55:09.083Z,2.97
2019-05-21T08:57:41.048Z,2.50
2019-05-21T09:00:15.397Z,2.53
2019-05-21T09:02:47.385Z,2.80
2019-05-21T09:05:19.455Z,2.73
2019-05-21T09:07:53.579Z,2.63
2019-05-21T09:10:25.375Z,2.97
2019-05-21T09:12:57.481Z,3.37
2019-05-21T09:15:29.541Z,3.50
2019-05-21T09:18:01.626Z,4.13
2019-05-21T09:20:33.657Z,3.10
2019-05-21T09:23:05.656Z,7.47
2019-05-21T09:25:37.653Z,3.73
2019-05-21T09:28:09.687Z,3.07
2019-05-21T09:30:41.676Z,3.57
2019-05-21T09:33:13.626Z,4.20
2019-05-21T09:35:45.716Z,2.70
2019-05-21T09:38:17.933Z,2.83
2019-05-21T09:40:50.494Z,2.90
2019-05-21T09:43:22.460Z,3.27
2019-05-21T09:45:54.475Z,3.67
2019-05-21T09:48:26.502Z,4.30
2019-05-21T09:50:58.517Z,3.60
2019-05-21T09:53:30.574Z,4.20
2019-05-21T09:56:22.179Z,3.40
2019-05-21T09:58:56.063Z,3.50
2019-05-21T10:01:40.789Z,3.80
2019-05-21T10:04:12.743Z,4.00
2019-05-21T10:06:44.727Z,4.17
2019-05-21T10:09:18.707Z,4.37
2019-05-21T10:11:50.752Z,4.37
2019-05-21T10:14:22.771Z,4.80
2019-05-21T10:16:54.778Z,4.90
2019-05-21T10:19:26.763Z,5.33
2019-05-21T10:21:58.835Z,5.20
2019-05-21T10:24:30.783Z,5.40
2019-05-21T10:27:03.525Z,5.50
2019-05-21T10:29:35.673Z,4.57
2019-05-21T10:32:07.713Z,6.17
2019-05-21T10:34:39.687Z,6.53
2019-05-21T10:37:11.720Z,6.10
2019-05-21T10:39:43.683Z,6.60
2019-05-21T10:42:15.691Z,5.77
2019-05-21T10:44:47.795Z,4.60
2019-05-21T10:47:19.753Z,5.13
2019-05-21T10:49:51.727Z,5.40
2019-05-21T10:52:24.074Z,5.50
2019-05-21T10:54:56.062Z,5.80
2019-05-21T10:57:28.130Z,5.50
2019-05-21T11:00:00.144Z,5.10
2019-05-21T11:02:55.255Z,4.93
2019-05-21T11:05:35.590Z,5.80
2019-05-21T11:08:24.801Z,5.50
2019-05-21T11:10:41.771Z,5.07
2019-05-21T11:13:14.184Z,4.90
2019-05-21T11:15:46.161Z,6.23
2019-05-21T11:18:18.140Z,6.10
2019-05-21T11:20:50.136Z,6.40
2019-05-21T11:23:22.211Z,6.30
2019-05-21T11:25:54.216Z,6.27
2019-05-21T11:28:26.232Z,6.33
2019-05-21T11:30:58.204Z,5.53
2019-05-21T11:33:30.222Z,5.77
2019-05-21T11:36:02.238Z,6.10
2019-05-21T11:38:40.059Z,5.67
2019-05-21T11:41:08.229Z,6.63
2019-05-21T11:43:40.207Z,5.43
2019-05-21T11:46:12.219Z,5.73
2019-05-21T11:48:44.251Z,5.83
2019-05-21T11:51:16.549Z,6.03
2019-05-21T11:53:48.668Z,5.10
2019-05-21T11:56:20.671Z,5.50
2019-05-21T11:58:52.714Z,5.03
2019-05-21T12:01:24.757Z,5.57
2019-05-21T12:03:56.806Z,6.43
2019-05-21T12:06:28.815Z,5.57
2019-05-21T12:09:00.851Z,5.13
2019-05-21T12:11:32.809Z,5.37
2019-05-21T12:14:05.035Z,5.43
2019-05-21T12:16:37.129Z,5.13
2019-05-21T12:19:09.232Z,4.90
2019-05-21T12:21:41.189Z,5.00
2019-05-21T12:24:13.261Z,5.00
2019-05-21T12:26:45.248Z,5.80
2019-05-21T12:29:17.270Z,6.27
2019-05-21T12:31:49.247Z,5.10
2019-05-21T12:34:21.346Z,5.33
2019-05-21T12:36:53.636Z,5.70
2019-05-21T12:39:25.673Z,5.87
2019-05-21T12:41:57.684Z,5.83
2019-05-21T12:44:29.862Z,5.43
2019-05-21T12:47:01.872Z,5.77
2019-05-21T12:49:33.883Z,5.73
2019-05-21T12:52:05.948Z,5.43
2019-05-21T12:54:37.924Z,5.37
2019-05-21T12:57:09.957Z,5.37
2019-05-21T12:59:41.944Z,5.40
2019-05-21T13:02:13.956Z,5.20
2019-05-21T13:04:45.962Z,5.97
2019-05-21T13:07:17.970Z,5.50
2019-05-21T13:09:49.995Z,10.87
2019-05-21T13:12:22.029Z,5.90
2019-05-21T13:14:54.803Z,5.53
2019-05-21T13:17:26.847Z,5.80
2019-05-21T13:19:58.900Z,6.20
2019-05-21T13:22:30.989Z,13.53
2019-05-21T13:25:03.716Z,7.53
2019-05-21T13:27:35.768Z,5.10
2019-05-21T13:30:08.180Z,5.00
2019-05-21T13:32:43.669Z,6.00
2019-05-21T13:35:14.191Z,3.80
2019-05-21T13:37:46.202Z,3.93
2019-05-21T13:40:18.405Z,4.63
2019-05-21T13:42:50.405Z,3.70
2019-05-21T13:45:22.411Z,3.30
2019-05-21T13:47:54.392Z,3.93
2019-05-21T13:50:26.413Z,3.90
2019-05-21T13:52:58.448Z,4.67
2019-05-21T13:55:33.990Z,3.87
2019-05-21T13:58:04.346Z,3.80
2019-05-21T14:00:51.946Z,3.83
2019-05-21T14:03:23.939Z,4.20
2019-05-21T14:05:55.990Z,3.70
2019-05-21T14:08:27.991Z,3.80
2019-05-21T14:11:00.069Z,4.60
2019-05-21T14:13:32.203Z,4.47
2019-05-21T14:16:04.279Z,3.80
2019-05-21T14:18:36.301Z,3.37
2019-05-21T14:21:08.327Z,3.27
2019-05-21T14:23:40.396Z,3.63
2019-05-21T14:26:12.432Z,3.70
2019-05-21T14:28:45.629Z,3.67
2019-05-21T14:31:17.651Z,3.80
2019-05-21T14:33:49.698Z,4.20
2019-05-21T14:36:21.785Z,3.80
2019-05-21T14:38:53.768Z,4.10
2019-05-21T14:41:25.885Z,3.77
2019-05-21T14:43:57.900Z,4.50
2019-05-21T14:46:29.949Z,3.93
2019-05-21T14:49:01.985Z,4.00
2019-05-21T14:51:34.021Z,4.50
2019-05-21T14:54:06.477Z,4.10
2019-05-21T14:56:38.452Z,4.20
2019-05-21T14:59:10.454Z,4.17
2019-05-21T15:01:42.440Z,4.50
2019-05-21T15:04:14.599Z,5.27
2019-05-21T15:06:46.825Z,6.03
2019-05-21T15:09:18.842Z,5.47
2019-05-21T15:11:50.938Z,5.37
2019-05-21T15:14:22.977Z,6.30
2019-05-21T15:16:55.050Z,6.03
2019-05-21T15:19:27.060Z,5.50
2019-05-21T15:21:59.076Z,4.97
2019-05-21T15:24:33.444Z,5.57
2019-05-21T15:27:05.127Z,4.87
2019-05-21T15:29:37.177Z,4.90
2019-05-21T15:32:09.235Z,4.80
2019-05-21T15:34:41.257Z,4.07
2019-05-21T15:37:13.378Z,3.80
2019-05-21T15:39:45.372Z,3.63
2019-05-21T15:42:18.834Z,6.10
2019-05-21T15:44:50.919Z,4.67
2019-05-21T15:47:22.958Z,4.70
2019-05-21T15:49:54.989Z,4.07
2019-05-21T15:52:27.047Z,4.03
2019-05-21T15:54:59.076Z,4.17
2019-05-21T15:57:31.133Z,3.83
2019-05-21T16:00:04.010Z,4.33
2019-05-21T16:02:36.050Z,4.10
2019-05-21T16:05:08.175Z,4.10
2019-05-21T16:07:40.228Z,4.20
2019-05-21T16:10:12.332Z,4.07
2019-05-21T16:12:44.391Z,4.30
2019-05-21T16:15:16.408Z,4.40
2019-05-21T16:17:48.455Z,4.47
2019-05-21T16:20:20.437Z,4.53
2019-05-21T16:22:52.503Z,4.67
2019-05-21T16:25:24.919Z,4.53
2019-05-21T16:27:56.940Z,4.67
2019-05-21T16:30:28.988Z,6.60
2019-05-21T16:33:01.041Z,6.20
2019-05-21T16:35:33.406Z,8.87
2019-05-21T16:38:05.633Z,7.70
2019-05-21T16:40:37.651Z,9.43
2019-05-21T16:43:09.711Z,8.27
2019-05-21T16:45:41.723Z,18.17
2019-05-21T16:48:13.789Z,20.70
2019-05-21T16:50:45.854Z,6.43
2019-05-21T16:53:17.880Z,9.30
2019-05-21T16:55:49.954Z,5.67
2019-05-21T16:58:22.036Z,7.43
2019-05-21T17:00:54.026Z,5.27
2019-05-21T17:03:26.049Z,6.37
2019-05-21T17:05:58.053Z,6.90
2019-05-21T17:08:30.270Z,5.17
2019-05-21T17:11:02.311Z,4.07
2019-05-21T17:13:34.392Z,6.23
2019-05-21T17:16:06.480Z,3.97
2019-05-21T17:18:38.508Z,3.77
2019-05-21T17:21:10.777Z,8.90
2019-05-21T17:23:42.788Z,10.03
2019-05-21T17:26:14.887Z,7.03
2019-05-21T17:28:46.888Z,5.13
2019-05-21T17:31:18.995Z,5.57
2019-05-21T17:33:51.111Z,5.53
2019-05-21T17:36:23.152Z,4.90
2019-05-21T17:38:55.175Z,5.10
2019-05-21T17:41:27.347Z,5.30
2019-05-21T17:43:59.420Z,5.97
2019-05-21T17:46:31.671Z,6.13
2019-05-21T17:49:03.697Z,5.87
2019-05-21T17:51:35.858Z,6.87
2019-05-21T17:54:08.018Z,6.37
2019-05-21T17:56:40.100Z,6.93
2019-05-21T17:59:12.114Z,6.60
2019-05-21T18:01:44.434Z,7.27
2019-05-21T18:04:16.566Z,6.50
2019-05-21T18:06:48.968Z,7.63
2019-05-21T18:09:22.765Z,7.67
2019-05-21T18:11:55.005Z,7.67
2019-05-21T18:14:27.807Z,7.97
2019-05-21T18:17:00.130Z,9.37
2019-05-21T18:19:32.465Z,9.67
2019-05-21T18:22:05.529Z,10.23
2019-05-21T18:24:38.580Z,9.80
2019-05-21T18:27:10.770Z,11.17
2019-05-21T18:29:42.822Z,10.33
2019-05-21T18:32:15.070Z,13.73
2019-05-21T18:34:47.118Z,13.50
2019-05-21T18:37:19.318Z,12.03
2019-05-21T18:39:51.354Z,10.77
2019-05-21T18:42:23.540Z,11.30
2019-05-21T18:44:55.578Z,10.60
2019-05-21T18:47:27.733Z,10.53
2019-05-21T18:49:59.792Z,9.40
2019-05-21T18:52:31.924Z,7.77
2019-05-21T18:55:04.961Z,9.03
2019-05-21T18:57:37.004Z,11.07
2019-05-21T19:00:09.771Z,16.67
2019-05-21T19:02:42.138Z,17.37
2019-05-21T19:05:14.357Z,13.13
2019-05-21T19:07:46.667Z,8.93
2019-05-21T19:10:18.636Z,7.87
2019-05-21T19:12:50.730Z,8.53
2019-05-21T19:15:22.769Z,7.17
2019-05-21T19:17:54.873Z,7.67
2019-05-21T19:20:26.887Z,8.67
2019-05-21T19:22:59.016Z,8.73
2019-05-21T19:25:31.039Z,8.97
2019-05-21T19:28:03.133Z,8.67
2019-05-21T19:30:35.163Z,9.13
2019-05-21T19:33:07.228Z,8.00
2019-05-21T19:35:39.269Z,8.70
2019-05-21T19:38:11.373Z,8.63
2019-05-21T19:40:43.522Z,8.10
2019-05-21T19:43:15.648Z,7.60
2019-05-21T19:45:47.715Z,8.00
2019-05-21T19:48:19.839Z,8.67
2019-05-21T19:50:51.852Z,9.40
2019-05-21T19:53:23.984Z,8.93
2019-05-21T19:55:56.107Z,8.20
2019-05-21T19:58:28.060Z,9.70
2019-05-21T20:01:00.532Z,10.53
2019-05-21T20:03:32.561Z,9.73
2019-05-21T20:06:05.068Z,10.57
2019-05-21T20:08:37.350Z,13.77
2019-05-21T20:11:09.463Z,19.70
2019-05-21T20:13:41.658Z,23.63
2019-05-21T20:16:14.166Z,14.87
2019-05-21T20:18:46.456Z,13.33
2019-05-21T20:21:19.037Z,15.13
2019-05-21T20:23:51.533Z,16.23
2019-05-21T20:26:24.277Z,15.97
2019-05-21T20:28:56.313Z,18.83
2019-05-21T20:31:28.991Z,20.60
2019-05-21T20:34:01.537Z,18.07
2019-05-21T20:36:33.706Z,20.53
2019-05-21T20:39:08.005Z,56.67
2019-05-21T20:41:41.366Z,42.87
2019-05-21T20:44:15.434Z,24.23
2019-05-21T20:46:47.861Z,23.67
2019-05-21T20:49:19.917Z,18.77
2019-05-21T20:51:52.371Z,20.13
2019-05-21T20:54:26.655Z,22.13
2019-05-21T20:56:58.948Z,20.40
2019-05-21T20:59:30.917Z,24.60
2019-05-21T21:02:05.818Z,20.37
2019-05-21T21:04:38.009Z,21.10
2019-05-21T21:07:10.013Z,18.73
2019-05-21T21:09:42.075Z,14.40
2019-05-21T21:12:14.489Z,15.90
2019-05-21T21:14:47.990Z,15.50
2019-05-21T21:17:20.122Z,17.80
2019-05-21T21:19:52.644Z,16.77
2019-05-21T21:22:24.710Z,21.43
2019-05-21T21:24:56.693Z,22.40
2019-05-21T21:27:28.794Z,22.40
2019-05-21T21:30:00.773Z,24.37
2019-05-21T21:32:33.895Z,26.30
2019-05-21T21:35:08.163Z,25.60
2019-05-21T21:37:40.181Z,22.20
2019-05-21T21:40:13.981Z,23.67
2019-05-21T21:42:46.022Z,25.77
2019-05-21T21:45:18.019Z,27.10
2019-05-21T21:47:50.280Z,29.97
2019-05-21T21:50:22.778Z,33.57
2019-05-21T21:52:54.845Z,33.87
2019-05-21T21:55:26.789Z,40.80
2019-05-21T21:57:58.800Z,36.57
2019-05-21T22:01:19.199Z,43.90
2019-05-21T22:03:51.199Z,42.67
2019-05-21T22:06:24.655Z,50.77
2019-05-21T22:08:57.021Z,48.83
2019-05-21T22:11:29.200Z,47.90
2019-05-21T22:14:02.426Z,50.10
2019-05-21T22:16:34.707Z,49.83
2019-05-21T22:19:07.625Z,54.73
2019-05-21T22:21:39.603Z,51.90
2019-05-21T22:24:12.802Z,46.67
2019-05-21T22:26:44.959Z,51.20
2019-05-21T22:29:16.977Z,54.30
2019-05-21T22:31:48.948Z,50.37
2019-05-21T22:34:21.355Z,52.97
2019-05-21T22:36:53.400Z,54.03
2019-05-21T22:39:31.708Z,47.30
2019-05-21T22:42:04.290Z,52.13
2019-05-21T22:44:36.796Z,51.50
2019-05-21T22:47:10.068Z,47.63
2019-05-21T22:49:42.077Z,52.53
2019-05-21T22:52:14.157Z,51.50
2019-05-21T22:54:46.114Z,53.73
2019-05-21T22:57:18.118Z,49.33
2019-05-21T22:59:50.057Z,52.93
2019-05-21T23:02:26.985Z,49.13
2019-05-21T23:04:59.133Z,52.57
2019-05-21T23:07:31.155Z,52.17
2019-05-21T23:10:04.789Z,59.93
2019-05-21T23:12:37.361Z,58.53
2019-05-21T23:15:23.755Z,53.80
2019-05-21T23:17:43.333Z,54.70
2019-05-21T23:20:16.272Z,55.80
2019-05-21T23:22:48.597Z,55.70
2019-05-21T23:25:21.575Z,54.97
2019-05-21T23:27:53.534Z,52.90
2019-05-21T23:30:26.457Z,54.60
2019-05-21T23:32:59.340Z,53.93
2019-05-21T23:35:31.914Z,49.87
2019-05-21T23:38:05.405Z,50.20
2019-05-21T23:40:37.689Z,53.13
2019-05-21T23:43:09.786Z,55.00
2019-05-21T23:45:42.037Z,52.97
2019-05-21T23:48:14.620Z,52.03
2019-05-21T23:50:46.670Z,58.20
2019-05-21T23:53:18.846Z,56.43
2019-05-21T23:55:51.089Z,52.30
2019-05-21T23:58:23.158Z,53.13
